createdAt,value
2022-12-12T00:01:39.583Z,61.27
2022-12-12T00:04:07.461Z,60.42
2022-12-12T00:06:35.482Z,60.10
2022-12-12T00:09:03.978Z,58.93
2022-12-12T00:11:31.773Z,56.96
2022-12-12T00:13:59.503Z,56.60
2022-12-12T00:16:29.081Z,57.73
2022-12-12T00:18:56.785Z,59.19
2022-12-12T00:21:27.674Z,60.05
2022-12-12T00:23:56.165Z,61.50
2022-12-12T00:26:28.332Z,65.39
2022-12-12T00:28:58.035Z,67.77
2022-12-12T00:31:26.119Z,66.99
2022-12-12T00:33:54.115Z,65.37
2022-12-12T00:36:24.837Z,64.37
2022-12-12T00:38:53.410Z,63.95
2022-12-12T00:41:21.792Z,65.17
2022-12-12T00:43:49.669Z,67.01
2022-12-12T00:46:19.785Z,65.13
2022-12-12T00:48:48.038Z,61.00
2022-12-12T00:51:18.767Z,60.21
2022-12-12T00:53:47.285Z,59.96
2022-12-12T00:56:16.993Z,61.43
2022-12-12T00:58:44.998Z,59.36
2022-12-12T01:01:16.103Z,55.62
2022-12-12T01:03:43.812Z,54.82
2022-12-12T01:06:11.761Z,57.09
2022-12-12T01:08:39.697Z,58.90
2022-12-12T01:11:11.046Z,60.51
2022-12-12T01:13:38.954Z,64.09
2022-12-12T01:16:07.497Z,69.76
2022-12-12T01:18:35.859Z,65.85
2022-12-12T01:21:04.137Z,62.82
2022-12-12T01:23:31.859Z,59.51
2022-12-12T01:26:04.774Z,57.35
2022-12-12T01:28:32.550Z,57.59
2022-12-12T01:31:00.305Z,58.69
2022-12-12T01:33:28.311Z,59.69
2022-12-12T01:35:56.879Z,60.52
2022-12-12T01:38:24.781Z,64.44
2022-12-12T01:40:54.048Z,70.04
2022-12-12T01:43:23.135Z,67.84
2022-12-12T01:46:00.185Z,62.46
2022-12-12T01:48:36.719Z,61.08
2022-12-12T01:51:11.669Z,58.93
2022-12-12T01:53:39.692Z,56.47
2022-12-12T01:56:12.364Z,56.30
2022-12-12T01:58:43.413Z,57.52
2022-12-12T02:01:11.987Z,60.27
2022-12-12T02:03:41.149Z,64.60
2022-12-12T02:06:19.776Z,68.88
2022-12-12T02:08:50.325Z,65.49
2022-12-12T02:11:18.180Z,63.72
2022-12-12T02:13:46.021Z,61.14
2022-12-12T02:16:40.330Z,53.86
2022-12-12T02:19:11.111Z,52.81
2022-12-12T02:21:48.026Z,53.99
2022-12-12T02:40:21.168Z,61.33
2022-12-12T02:43:09.798Z,68.35
2022-12-12T02:45:39.595Z,71.24
2022-12-12T02:48:52.229Z,66.21
2022-12-12T02:51:21.620Z,57.59
2022-12-12T02:53:49.257Z,53.53
2022-12-12T02:56:44.802Z,54.02
2022-12-12T02:59:21.972Z,55.80
2022-12-12T03:02:30.829Z,57.58
2022-12-12T03:05:38.537Z,59.31
2022-12-12T03:08:40.199Z,60.02
2022-12-12T03:11:12.772Z,61.74
2022-12-12T03:13:43.523Z,67.61
2022-12-12T03:16:28.283Z,71.60
2022-12-12T03:19:20.868Z,62.58
2022-12-12T03:22:08.488Z,55.29
2022-12-12T03:25:08.635Z,54.04
2022-12-12T03:27:48.791Z,55.54
2022-12-12T03:30:18.093Z,57.07
2022-12-12T03:32:52.583Z,58.53
2022-12-12T03:35:28.545Z,60.13
2022-12-12T03:38:07.277Z,61.31
2022-12-12T03:40:34.861Z,66.34
2022-12-12T03:43:10.389Z,70.88
2022-12-12T03:46:12.748Z,64.05
2022-12-12T03:48:45.653Z,60.80
2022-12-12T03:51:23.362Z,56.47
2022-12-12T03:54:00.414Z,54.58
2022-12-12T03:56:37.462Z,56.02
2022-12-12T03:59:16.477Z,57.17
2022-12-12T04:01:50.294Z,58.35
2022-12-12T04:04:28.390Z,59.30
2022-12-12T04:07:07.346Z,60.13
2022-12-12T04:09:53.683Z,61.49
2022-12-12T04:12:44.305Z,65.61
2022-12-12T04:15:47.763Z,73.18
2022-12-12T04:18:55.825Z,67.55
2022-12-12T04:22:00.391Z,62.63
2022-12-12T04:25:00.870Z,58.02
2022-12-12T04:27:40.983Z,55.44
2022-12-12T04:30:12.393Z,57.49
2022-12-12T04:32:52.613Z,58.93
2022-12-12T04:35:29.410Z,59.89
2022-12-12T04:38:01.324Z,60.49
2022-12-12T04:40:54.980Z,61.52
2022-12-12T04:43:28.155Z,67.03
2022-12-12T04:46:08.901Z,70.67
2022-12-12T04:48:50.732Z,67.45
2022-12-12T04:51:26.703Z,61.53
2022-12-12T04:54:14.576Z,57.81
2022-12-12T04:56:46.317Z,55.80
2022-12-12T04:59:14.064Z,56.73
2022-12-12T05:01:54.693Z,59.83
2022-12-12T05:04:29.248Z,61.65
2022-12-12T05:07:04.550Z,66.82
2022-12-12T05:09:32.236Z,68.15
2022-12-12T05:11:59.930Z,65.88
2022-12-12T05:14:29.736Z,61.74
2022-12-12T05:17:01.024Z,58.24
2022-12-12T05:19:28.774Z,55.76
2022-12-12T05:21:56.430Z,57.11
2022-12-12T05:24:24.122Z,58.30
2022-12-12T05:26:51.821Z,59.52
2022-12-12T05:29:19.468Z,60.79
2022-12-12T05:31:47.123Z,64.62
2022-12-12T05:34:14.790Z,69.34
2022-12-12T05:36:42.568Z,67.50
2022-12-12T05:39:10.259Z,64.92
2022-12-12T05:41:38.356Z,61.26
2022-12-12T05:44:06.161Z,60.12
2022-12-12T05:46:33.879Z,59.55
2022-12-12T05:49:01.598Z,58.58
2022-12-12T05:51:29.240Z,58.06
2022-12-12T05:53:56.969Z,58.32
2022-12-12T05:56:24.604Z,59.69
2022-12-12T05:58:52.217Z,60.93
2022-12-12T06:01:19.845Z,61.99
2022-12-12T06:03:47.672Z,65.80
2022-12-12T06:06:15.426Z,68.68
2022-12-12T06:08:43.256Z,67.85
2022-12-12T06:11:11.022Z,67.63
2022-12-12T06:13:38.823Z,66.47
2022-12-12T06:16:11.876Z,66.44
2022-12-12T06:18:39.573Z,65.79
2022-12-12T06:21:10.029Z,65.49
2022-12-12T06:23:41.894Z,65.52
2022-12-12T06:26:12.144Z,65.70
2022-12-12T06:28:40.824Z,66.38
2022-12-12T06:31:11.861Z,65.53
2022-12-12T06:33:41.828Z,65.32
2022-12-12T06:36:16.627Z,65.02
2022-12-12T06:38:44.609Z,65.03
2022-12-12T06:41:14.383Z,65.50
2022-12-12T06:43:42.908Z,65.27
2022-12-12T06:46:16.652Z,65.16
2022-12-12T06:48:45.351Z,66.52
2022-12-12T06:51:33.426Z,64.34
2022-12-12T06:54:01.151Z,62.83
2022-12-12T06:56:29.180Z,62.88
2022-12-12T06:58:58.762Z,62.43
2022-12-12T07:01:26.503Z,61.98
2022-12-12T07:03:54.294Z,62.26
2022-12-12T07:06:23.294Z,63.63
2022-12-12T07:08:52.082Z,63.68
2022-12-12T07:11:22.934Z,62.72
2022-12-12T07:13:51.176Z,61.97
2022-12-12T07:16:19.798Z,59.28
2022-12-12T07:18:48.421Z,55.09
2022-12-12T07:21:19.141Z,54.85
2022-12-12T07:23:47.424Z,56.68
2022-12-12T07:26:18.612Z,58.50
2022-12-12T07:28:46.478Z,59.92
2022-12-12T07:31:16.939Z,63.70
2022-12-12T07:33:45.293Z,66.49
2022-12-12T07:36:14.610Z,67.37
2022-12-12T07:38:43.210Z,66.73
2022-12-12T07:41:13.640Z,65.24
2022-12-12T07:43:44.737Z,63.54
2022-12-12T07:46:18.741Z,63.43
2022-12-12T07:48:46.750Z,63.27
2022-12-12T07:51:15.187Z,61.67
2022-12-12T07:53:43.323Z,60.28
2022-12-12T07:56:13.337Z,60.85
2022-12-12T07:58:41.491Z,57.28
2022-12-12T08:01:21.362Z,55.68
2022-12-12T08:03:49.533Z,57.04
2022-12-12T08:06:17.887Z,59.74
2022-12-12T08:08:46.773Z,63.66
2022-12-12T08:11:16.526Z,66.91
2022-12-12T08:13:44.260Z,64.43
2022-12-12T08:16:21.717Z,60.99
2022-12-12T08:18:49.843Z,58.95
2022-12-12T08:21:24.816Z,58.10
2022-12-12T08:23:58.137Z,60.90
2022-12-12T08:26:27.909Z,64.81
2022-12-12T08:28:56.710Z,64.15
2022-12-12T08:31:25.817Z,62.43
2022-12-12T08:33:54.652Z,62.48
2022-12-12T08:36:26.727Z,63.63
2022-12-12T08:38:54.402Z,63.86
2022-12-12T08:41:23.501Z,60.92
2022-12-12T08:43:51.682Z,58.76
2022-12-12T08:46:21.145Z,57.82
2022-12-12T08:48:49.719Z,59.77
2022-12-12T08:51:18.666Z,63.95
2022-12-12T08:53:48.181Z,66.51
2022-12-12T08:56:17.141Z,65.18
2022-12-12T08:58:45.441Z,61.66
2022-12-12T09:01:21.991Z,58.05
2022-12-12T09:03:51.786Z,57.08
2022-12-12T09:06:20.801Z,60.35
2022-12-12T09:08:48.891Z,61.59
2022-12-12T09:11:17.401Z,65.47
2022-12-12T09:13:45.782Z,67.61
2022-12-12T09:16:13.608Z,66.89
2022-12-12T09:18:48.086Z,61.70
2022-12-12T09:21:17.771Z,59.40
2022-12-12T09:23:45.456Z,55.87
2022-12-12T09:26:13.607Z,56.62
2022-12-12T09:28:41.445Z,57.24
2022-12-12T09:31:11.036Z,62.56
2022-12-12T09:33:39.969Z,65.19
2022-12-12T09:36:08.817Z,66.38
2022-12-12T09:38:36.695Z,63.69
2022-12-12T09:41:13.763Z,59.75
2022-12-12T09:44:00.152Z,56.00
2022-12-12T09:46:47.536Z,55.61
2022-12-12T09:49:28.988Z,57.91
2022-12-12T09:51:57.829Z,61.24
2022-12-12T09:54:27.387Z,64.52
2022-12-12T09:57:16.001Z,65.79
2022-12-12T09:59:55.830Z,65.21
2022-12-12T10:02:57.646Z,61.73
2022-12-12T10:05:51.207Z,59.11
2022-12-12T10:08:45.087Z,57.86
2022-12-12T10:11:44.547Z,61.08
2022-12-12T10:14:14.390Z,64.57
2022-12-12T10:16:42.967Z,64.09
2022-12-12T10:19:20.564Z,64.76
2022-12-12T10:21:51.980Z,64.22
2022-12-12T10:24:22.275Z,63.09
2022-12-12T10:26:50.753Z,62.37
2022-12-12T10:29:20.507Z,61.57
2022-12-12T10:32:00.675Z,61.00
2022-12-12T10:34:57.849Z,61.37
2022-12-12T10:37:43.793Z,61.46
2022-12-12T10:40:39.322Z,61.34
2022-12-12T10:43:42.916Z,61.37
2022-12-12T10:46:19.459Z,61.75
2022-12-12T10:48:48.890Z,63.06
2022-12-12T10:51:20.297Z,62.81
2022-12-12T10:53:48.169Z,63.02
2022-12-12T10:56:23.436Z,64.08
2022-12-12T10:58:57.597Z,63.80
2022-12-12T11:02:00.509Z,64.29
2022-12-12T11:04:20.041Z,63.97
2022-12-12T11:06:52.509Z,63.31
2022-12-12T11:09:23.553Z,63.75
2022-12-12T11:12:03.739Z,63.80
2022-12-12T11:14:53.013Z,63.39
2022-12-12T11:17:22.799Z,63.47
2022-12-12T11:19:52.154Z,64.00
2022-12-12T11:22:20.274Z,64.74
2022-12-12T11:24:49.644Z,64.49
2022-12-12T11:27:40.490Z,62.25
2022-12-12T11:30:37.903Z,61.60
2022-12-12T11:33:08.844Z,61.38
2022-12-12T11:35:45.666Z,62.67
2022-12-12T11:38:19.995Z,62.34
2022-12-12T11:40:59.605Z,62.90
2022-12-12T11:43:30.519Z,63.07
2022-12-12T11:46:04.327Z,63.54
2022-12-12T11:48:55.448Z,63.51
2022-12-12T11:51:39.709Z,63.74
2022-12-12T11:54:14.828Z,63.04
2022-12-12T11:57:02.171Z,63.04
2022-12-12T11:59:39.967Z,63.40
2022-12-12T12:02:29.482Z,63.37
2022-12-12T12:05:32.105Z,63.26
2022-12-12T12:08:15.172Z,62.94
2022-12-12T12:10:48.641Z,63.03
2022-12-12T12:13:16.527Z,63.30
2022-12-12T12:16:00.122Z,63.17
2022-12-12T12:18:56.265Z,63.01
2022-12-12T12:21:36.219Z,62.52
2022-12-12T12:24:22.573Z,62.59
2022-12-12T12:27:00.911Z,63.09
2022-12-12T12:29:37.363Z,62.82
2022-12-12T12:32:04.992Z,64.14
2022-12-12T12:34:42.709Z,63.55
2022-12-12T12:37:30.935Z,60.67
2022-12-12T12:40:17.170Z,59.75
2022-12-12T12:43:11.534Z,59.88
2022-12-12T12:45:53.132Z,60.17
2022-12-12T12:48:34.738Z,60.56
2022-12-12T12:51:25.559Z,60.44
2022-12-12T12:53:59.922Z,61.07
2022-12-12T12:56:36.722Z,62.01
2022-12-12T12:59:17.234Z,62.66
2022-12-12T13:01:52.578Z,62.47
2022-12-12T13:04:22.885Z,62.64
2022-12-12T13:07:12.108Z,63.25
2022-12-12T13:09:51.552Z,63.77
2022-12-12T13:12:40.289Z,63.96
2022-12-12T13:15:19.659Z,64.63
2022-12-12T13:17:56.614Z,64.61
2022-12-12T13:20:26.281Z,65.67
2022-12-12T13:23:00.097Z,65.73
2022-12-12T13:25:54.797Z,65.44
2022-12-12T13:28:51.604Z,65.88
2022-12-12T13:31:39.803Z,66.29
2022-12-12T13:34:13.327Z,66.54
2022-12-12T13:36:45.684Z,65.50
2022-12-12T13:39:33.170Z,64.94
2022-12-12T13:42:03.511Z,65.61
2022-12-12T13:44:44.845Z,65.30
2022-12-12T13:47:22.051Z,64.99
2022-12-12T13:49:57.518Z,65.09
2022-12-12T13:52:30.132Z,65.02
2022-12-12T13:55:13.461Z,65.76
2022-12-12T13:57:59.013Z,67.50
2022-12-12T14:00:34.488Z,66.34
2022-12-12T14:03:11.655Z,65.81
2022-12-12T14:05:52.319Z,65.08
2022-12-12T14:08:25.588Z,64.60
2022-12-12T14:10:57.627Z,64.56
2022-12-12T14:13:30.617Z,65.40
2022-12-12T14:15:58.340Z,64.86
2022-12-12T14:18:40.681Z,63.61
2022-12-12T14:21:14.492Z,62.95
2022-12-12T14:23:51.208Z,62.47
2022-12-12T14:26:28.496Z,61.55
2022-12-12T14:29:17.816Z,61.04
2022-12-12T14:31:58.940Z,62.86
2022-12-12T14:38:35.669Z,55.90
2022-12-12T14:41:10.258Z,57.11
2022-12-12T14:43:48.571Z,59.06
2022-12-12T14:46:42.321Z,62.32
2022-12-12T14:49:16.049Z,65.74
2022-12-12T14:51:50.779Z,65.53
2022-12-12T14:54:21.885Z,65.88
2022-12-12T15:00:21.017Z,66.80
2022-12-12T15:02:55.398Z,66.81
2022-12-12T15:05:24.506Z,66.74
2022-12-12T15:07:59.623Z,67.14
2022-12-12T15:10:30.516Z,67.65
2022-12-12T15:12:58.160Z,68.59
2022-12-12T15:15:29.337Z,70.12
2022-12-12T15:18:00.435Z,71.07
2022-12-12T15:20:30.735Z,67.54
2022-12-12T15:23:01.640Z,63.89
2022-12-12T15:25:36.213Z,62.07
2022-12-12T15:28:03.935Z,61.01
2022-12-12T15:30:33.348Z,60.69
2022-12-12T15:33:02.141Z,61.29
2022-12-12T15:35:29.768Z,61.70
2022-12-12T15:38:00.487Z,61.97
2022-12-12T15:40:35.918Z,58.26
2022-12-12T15:43:11.560Z,54.87
2022-12-12T15:45:47.216Z,57.09
2022-12-12T15:48:17.213Z,58.63
2022-12-12T15:50:45.797Z,63.69
2022-12-12T15:53:26.678Z,65.25
2022-12-12T15:56:11.987Z,63.13
2022-12-12T15:58:45.484Z,62.06
2022-12-12T16:01:21.452Z,61.29
2022-12-12T16:03:55.527Z,61.31
2022-12-12T16:06:26.223Z,61.11
2022-12-12T16:08:59.500Z,62.11
2022-12-12T16:11:38.188Z,60.08
2022-12-12T16:14:42.395Z,58.89
2022-12-12T16:17:25.255Z,59.75
2022-12-12T16:19:57.503Z,64.03
2022-12-12T16:22:41.669Z,64.42
2022-12-12T16:25:15.750Z,62.92
2022-12-12T16:27:44.415Z,62.10
2022-12-12T16:30:14.925Z,61.76
2022-12-12T16:32:43.407Z,61.51
2022-12-12T16:35:17.104Z,61.40
2022-12-12T16:37:45.650Z,61.39
2022-12-12T16:40:16.043Z,61.29
2022-12-12T16:42:47.522Z,60.93
2022-12-12T16:45:15.210Z,61.16
2022-12-12T16:47:42.935Z,61.07
2022-12-12T16:50:14.424Z,61.25
2022-12-12T16:52:42.294Z,61.53
2022-12-12T16:55:30.693Z,61.81
2022-12-12T16:57:58.323Z,61.93
2022-12-12T17:00:25.918Z,61.75
2022-12-12T17:02:53.587Z,61.45
2022-12-12T17:05:24.955Z,61.73
2022-12-12T17:07:53.720Z,62.02
2022-12-12T17:10:24.535Z,62.56
2022-12-12T17:12:54.113Z,62.89
2022-12-12T17:15:26.346Z,63.19
2022-12-12T17:17:55.075Z,63.37
2022-12-12T17:20:23.690Z,63.55
2022-12-12T17:22:55.104Z,63.49
2022-12-12T17:25:23.301Z,63.81
2022-12-12T17:27:51.869Z,64.73
2022-12-12T17:30:20.750Z,64.51
2022-12-12T17:35:35.593Z,64.13
2022-12-12T17:38:03.838Z,64.36
2022-12-12T17:40:31.659Z,64.41
2022-12-12T17:42:59.892Z,64.66
2022-12-12T17:45:27.528Z,64.53
2022-12-12T17:47:57.567Z,64.78
2022-12-12T17:50:25.199Z,65.27
2022-12-12T17:52:56.043Z,65.47
2022-12-12T17:55:55.341Z,65.90
2022-12-12T17:58:11.504Z,64.67
2022-12-12T18:00:40.382Z,63.74
2022-12-12T18:03:10.227Z,63.75
2022-12-12T18:05:37.782Z,63.82
2022-12-12T18:08:05.534Z,64.01
2022-12-12T18:10:33.470Z,63.70
2022-12-12T18:13:02.406Z,62.61
2022-12-12T18:15:30.184Z,62.78
2022-12-12T18:17:57.912Z,62.60
2022-12-12T18:20:31.026Z,62.54
2022-12-12T18:22:59.140Z,62.12
2022-12-12T18:25:26.856Z,62.16
2022-12-12T18:27:56.071Z,62.70
2022-12-12T18:30:23.686Z,63.59
2022-12-12T18:32:51.260Z,64.17
2022-12-12T18:35:19.654Z,62.10
2022-12-12T18:37:48.195Z,60.70
2022-12-12T18:40:16.262Z,57.67
2022-12-12T18:42:44.190Z,56.13
2022-12-12T18:45:12.436Z,58.72
2022-12-12T18:47:40.074Z,61.08
2022-12-12T18:50:08.467Z,63.89
2022-12-12T18:52:36.131Z,65.23
2022-12-12T18:55:04.666Z,63.34
2022-12-12T18:57:32.750Z,62.65
2022-12-12T19:00:00.736Z,62.57
2022-12-12T19:12:56.266Z,63.13
2022-12-12T19:15:23.884Z,63.39
2022-12-12T19:17:51.602Z,63.25
2022-12-12T19:20:19.370Z,63.27
2022-12-12T19:22:47.268Z,63.24
2022-12-12T19:25:17.303Z,64.33
2022-12-12T19:27:45.207Z,64.58
2022-12-12T19:30:14.545Z,64.43
2022-12-12T19:32:43.114Z,64.31
2022-12-12T19:35:11.036Z,63.79
2022-12-12T19:37:38.682Z,63.16
2022-12-12T19:40:09.808Z,62.77
2022-12-12T19:42:38.396Z,62.55
2022-12-12T19:45:08.563Z,62.25
2022-12-12T19:47:36.267Z,62.21
2022-12-12T19:50:04.511Z,62.17
2022-12-12T19:52:32.190Z,62.16
2022-12-12T19:54:59.831Z,62.13
2022-12-12T19:57:30.672Z,62.02
2022-12-12T19:59:58.502Z,62.03
2022-12-12T20:02:26.269Z,62.35
2022-12-12T20:04:54.075Z,62.32
2022-12-12T20:07:21.837Z,62.22
2022-12-12T20:09:49.485Z,62.48
2022-12-12T20:12:17.416Z,62.90
2022-12-12T20:14:45.317Z,64.35
2022-12-12T20:17:13.422Z,64.28
2022-12-12T20:19:44.180Z,65.74
2022-12-12T20:22:12.052Z,66.74
2022-12-12T20:24:40.811Z,67.27
2022-12-12T20:27:09.228Z,68.53
2022-12-12T20:29:38.667Z,67.67
2022-12-12T20:32:06.323Z,66.37
2022-12-12T20:34:34.114Z,65.73
2022-12-12T20:37:01.877Z,65.91
2022-12-12T20:39:29.844Z,66.02
2022-12-12T20:41:57.560Z,66.21
2022-12-12T20:44:25.956Z,66.20
2022-12-12T20:46:53.795Z,66.35
2022-12-12T20:49:22.457Z,67.09
2022-12-12T20:51:58.612Z,66.89
2022-12-12T20:54:28.575Z,66.26
2022-12-12T20:56:58.227Z,65.51
2022-12-12T20:59:26.648Z,63.87
2022-12-12T21:01:57.412Z,64.00
2022-12-12T21:04:25.946Z,63.59
2022-12-12T21:06:53.781Z,62.31
2022-12-12T21:09:25.900Z,61.40
2022-12-12T21:11:56.883Z,60.63
2022-12-12T21:14:28.347Z,60.07
2022-12-12T21:16:56.286Z,59.96
2022-12-12T21:19:24.037Z,59.98
2022-12-12T21:21:52.894Z,60.28
2022-12-12T21:24:21.254Z,59.94
2022-12-12T21:26:49.107Z,59.97
2022-12-12T21:29:17.429Z,60.03
2022-12-12T21:31:51.004Z,60.48
2022-12-12T21:34:22.412Z,60.76
2022-12-12T21:36:52.329Z,61.09
2022-12-12T21:39:21.856Z,60.65
2022-12-12T21:41:49.458Z,60.73
2022-12-12T21:44:17.367Z,60.68
2022-12-12T21:46:45.135Z,61.07
2022-12-12T21:49:30.604Z,61.57
2022-12-12T21:52:03.838Z,61.90
2022-12-12T21:54:32.583Z,61.43
2022-12-12T21:57:03.841Z,61.57
2022-12-12T21:59:31.712Z,62.77
2022-12-12T22:02:01.058Z,63.15
2022-12-12T22:04:29.114Z,62.50
2022-12-12T22:06:57.713Z,62.43
2022-12-12T22:09:26.892Z,62.78
2022-12-12T22:12:03.434Z,63.04
2022-12-12T22:14:33.881Z,63.01
2022-12-12T22:17:02.921Z,64.15
2022-12-12T22:19:30.828Z,62.68
2022-12-12T22:21:58.682Z,60.23
2022-12-12T22:24:26.381Z,58.20
2022-12-12T22:26:54.191Z,57.72
2022-12-12T22:29:21.959Z,59.97
2022-12-12T22:31:50.121Z,62.20
2022-12-12T22:34:23.848Z,65.27
2022-12-12T22:36:52.821Z,65.73
2022-12-12T22:39:23.736Z,62.94
2022-12-12T22:41:51.957Z,60.68
2022-12-12T22:44:21.491Z,59.66
2022-12-12T22:46:50.816Z,58.55
2022-12-12T22:49:22.326Z,57.83
2022-12-12T22:51:49.997Z,58.14
2022-12-12T22:54:18.440Z,59.93
2022-12-12T22:56:46.104Z,63.78
2022-12-12T22:59:14.401Z,66.79
2022-12-12T23:01:42.783Z,66.07
2022-12-12T23:04:14.454Z,66.62
2022-12-12T23:06:42.769Z,66.91
2022-12-12T23:09:16.762Z,68.06
2022-12-12T23:11:45.434Z,63.54
2022-12-12T23:14:16.199Z,61.13
2022-12-12T23:16:44.624Z,59.04
2022-12-12T23:19:16.703Z,57.95
2022-12-12T23:21:44.785Z,59.97
2022-12-12T23:24:12.971Z,64.09
2022-12-12T23:26:41.338Z,62.63
2022-12-12T23:29:12.643Z,58.88
2022-12-12T23:31:40.628Z,56.36
2022-12-12T23:34:14.794Z,58.33
2022-12-12T23:36:44.000Z,60.04
2022-12-12T23:39:12.943Z,64.21
2022-12-12T23:41:41.512Z,65.69
2022-12-12T23:44:12.404Z,63.26
2022-12-12T23:46:40.587Z,59.02
2022-12-12T23:49:14.950Z,55.41
2022-12-12T23:51:48.127Z,55.36
2022-12-12T23:54:19.032Z,57.46
2022-12-12T23:56:48.426Z,59.07
2022-12-12T23:59:18.272Z,63.41
